createdAt,value
2022-12-28T00:01:32.833Z,100733.16
2022-12-28T00:06:34.653Z,100720.22
2022-12-28T00:11:35.859Z,100711.22
2022-12-28T00:16:37.212Z,100692.06
2022-12-28T00:21:38.505Z,100699.69
2022-12-28T00:26:39.704Z,100697.38
2022-12-28T00:31:40.907Z,100698.22
2022-12-28T00:37:09.756Z,100699.06
2022-12-28T00:42:03.226Z,100699.41
2022-12-28T00:47:04.439Z,100679.28
2022-12-28T00:52:05.668Z,100674.25
2022-12-28T00:57:06.873Z,100663.25
2022-12-28T01:02:08.152Z,100654.88
2022-12-28T01:07:09.455Z,100626.00
2022-12-28T01:12:10.608Z,100627.88
2022-12-28T01:17:11.745Z,100615.69
2022-12-28T01:22:14.410Z,100610.81
2022-12-28T01:27:15.572Z,100611.34
2022-12-28T01:32:16.859Z,100617.88
2022-12-28T01:37:18.022Z,100599.16
2022-12-28T01:42:19.235Z,100585.38
2022-12-28T01:47:20.511Z,100580.44
2022-12-28T01:52:21.691Z,100569.56
2022-12-28T01:57:22.914Z,100564.38
2022-12-28T02:02:24.313Z,100551.16
2022-12-28T02:07:25.652Z,100536.88
2022-12-28T02:12:26.965Z,100537.22
2022-12-28T02:17:28.315Z,100521.09
2022-12-28T02:22:29.493Z,100520.59
2022-12-28T02:27:30.777Z,100504.72
2022-12-28T02:32:32.003Z,100501.88
2022-12-28T02:37:33.188Z,100497.72
2022-12-28T02:42:34.377Z,100498.78
2022-12-28T02:47:54.460Z,100484.50
2022-12-28T02:52:55.665Z,100475.16
2022-12-28T02:57:56.851Z,100463.94
2022-12-28T03:02:58.139Z,100452.00
2022-12-28T03:08:19.946Z,100445.22
2022-12-28T03:13:39.966Z,100439.78
2022-12-28T03:18:59.753Z,100426.53
2022-12-28T03:24:19.479Z,100414.03
2022-12-28T03:29:39.212Z,100410.69
2022-12-28T03:34:40.399Z,100390.09
2022-12-28T03:39:41.756Z,100390.09
2022-12-28T03:44:43.143Z,100386.47
2022-12-28T03:49:44.484Z,100382.28
2022-12-28T03:54:45.681Z,100374.50
2022-12-28T03:59:46.847Z,100368.75
2022-12-28T04:04:48.045Z,100354.16
2022-12-28T04:09:49.218Z,100356.78
2022-12-28T04:14:50.421Z,100358.88
2022-12-28T04:19:51.617Z,100358.06
2022-12-28T04:24:52.808Z,100359.13
2022-12-28T04:29:53.947Z,100342.69
2022-12-28T04:34:55.093Z,100343.72
2022-12-28T04:39:57.305Z,100327.28
2022-12-28T04:44:58.853Z,100332.50
2022-12-28T04:50:00.069Z,100328.06
2022-12-28T04:55:01.315Z,100307.94
2022-12-28T05:00:02.539Z,100302.22
2022-12-28T05:05:03.725Z,100292.81
2022-12-28T05:10:04.934Z,100283.69
2022-12-28T05:15:06.155Z,100281.03
2022-12-28T05:20:07.293Z,100266.16
2022-12-28T05:25:08.497Z,100268.22
2022-12-28T05:30:09.663Z,100268.22
2022-12-28T05:35:10.830Z,100261.94
2022-12-28T05:40:12.067Z,100262.44
2022-12-28T05:45:13.244Z,100255.94
2022-12-28T05:50:14.505Z,100256.69
2022-12-28T05:55:15.697Z,100253.50
2022-12-28T06:00:17.479Z,100255.25
2022-12-28T06:05:18.704Z,100240.81
2022-12-28T06:10:19.887Z,100237.06
2022-12-28T06:15:21.091Z,100233.91
2022-12-28T06:20:22.281Z,100238.31
2022-12-28T06:25:23.456Z,100227.81
2022-12-28T06:30:24.634Z,100212.56
2022-12-28T06:35:25.844Z,100214.16
2022-12-28T06:40:39.546Z,100205.19
2022-12-28T06:45:48.285Z,100192.94
2022-12-28T06:50:49.458Z,100204.97
2022-12-28T06:55:50.649Z,100199.69
2022-12-28T07:00:51.921Z,100202.53
2022-12-28T07:05:53.196Z,100208.31
2022-12-28T07:10:54.370Z,100209.66
2022-12-28T07:15:55.583Z,100211.41
2022-12-28T07:20:56.759Z,100212.16
2022-12-28T07:25:58.064Z,100207.19
2022-12-28T07:30:59.268Z,100208.16
2022-12-28T07:36:00.696Z,100205.78
2022-12-28T07:41:02.228Z,100214.41
2022-12-28T07:46:03.455Z,100202.13
2022-12-28T07:51:04.723Z,100206.06
2022-12-28T07:56:05.896Z,100202.63
2022-12-28T08:01:07.258Z,100200.75
2022-12-28T08:06:08.563Z,100201.47
2022-12-28T08:11:10.699Z,100200.44
2022-12-28T08:16:12.035Z,100200.22
2022-12-28T08:21:13.321Z,100196.28
2022-12-28T08:26:14.444Z,100202.56
2022-12-28T08:31:15.667Z,100200.22
2022-12-28T08:36:16.816Z,100202.78
2022-12-28T08:41:18.078Z,100200.09
2022-12-28T08:46:19.591Z,100200.34
2022-12-28T08:51:20.919Z,100193.19
2022-12-28T08:56:22.175Z,100195.75
2022-12-28T09:01:23.431Z,100194.94
2022-12-28T09:06:24.745Z,100194.13
2022-12-28T09:11:26.237Z,100190.97
2022-12-28T09:16:27.633Z,100194.13
2022-12-28T09:21:28.938Z,100194.06
2022-12-28T09:26:31.181Z,100192.66
2022-12-28T09:31:32.467Z,100189.75
2022-12-28T09:36:33.683Z,100190.50
2022-12-28T09:41:34.941Z,100190.44
2022-12-28T09:46:36.149Z,100199.56
2022-12-28T09:51:37.358Z,100201.63
2022-12-28T09:56:38.518Z,100200.00
2022-12-28T10:01:39.786Z,100194.47
2022-12-28T10:06:41.580Z,100201.00
2022-12-28T10:11:42.822Z,100189.97
2022-12-28T10:16:48.537Z,100185.16
2022-12-28T10:21:50.065Z,100184.59
2022-12-28T10:26:51.292Z,100178.00
2022-12-28T10:31:52.480Z,100170.13
2022-12-28T10:36:53.663Z,100170.34
2022-12-28T10:41:55.168Z,100160.38
2022-12-28T10:46:56.381Z,100158.25
2022-12-28T10:51:57.604Z,100149.81
2022-12-28T10:56:58.748Z,100143.44
2022-12-28T11:02:00.055Z,100141.22
2022-12-28T11:07:01.393Z,100126.50
2022-12-28T11:12:02.576Z,100122.44
2022-12-28T11:17:03.777Z,100100.88
2022-12-28T11:22:04.989Z,100096.22
2022-12-28T11:27:06.173Z,100103.31
2022-12-28T11:32:07.379Z,100098.06
2022-12-28T11:37:08.549Z,100092.81
2022-12-28T11:42:38.089Z,100093.91
2022-12-28T11:47:33.229Z,100094.09
2022-12-28T11:52:34.610Z,100087.56
2022-12-28T11:57:35.901Z,100098.34
2022-12-28T12:02:37.110Z,100091.56
2022-12-28T12:07:38.332Z,100088.75
2022-12-28T12:12:39.516Z,100077.72
2022-12-28T12:17:43.100Z,100076.19
2022-12-28T12:22:44.572Z,100061.03
2022-12-28T12:27:45.757Z,100048.78
2022-12-28T12:32:46.905Z,100057.72
2022-12-28T12:37:48.081Z,100040.78
2022-12-28T12:42:49.275Z,100042.72
2022-12-28T12:47:50.523Z,100048.13
2022-12-28T12:52:51.737Z,100038.97
2022-12-28T12:57:52.939Z,100038.19
2022-12-28T13:02:54.457Z,100032.16
2022-12-28T13:07:56.499Z,100015.47
2022-12-28T13:12:57.674Z,100027.66
2022-12-28T13:18:11.316Z,100021.97
2022-12-28T13:23:20.056Z,100011.59
2022-12-28T13:28:21.264Z,99972.09
2022-12-28T13:33:22.527Z,99962.97
2022-12-28T13:38:23.837Z,99946.19
2022-12-28T13:43:24.998Z,99932.25
2022-12-28T13:48:26.223Z,99916.25
2022-12-28T13:53:27.439Z,99910.94
2022-12-28T13:58:28.622Z,99914.50
2022-12-28T14:03:34.558Z,99911.13
2022-12-28T14:08:38.733Z,99904.75
2022-12-28T14:13:39.966Z,99900.38
2022-12-28T14:18:41.156Z,99892.81
2022-12-28T14:23:43.497Z,99898.63
2022-12-28T14:28:44.694Z,99890.75
2022-12-28T14:33:45.902Z,99881.84
2022-12-28T14:38:47.128Z,99858.28
2022-12-28T14:43:48.362Z,99844.69
2022-12-28T14:48:49.589Z,99852.34
2022-12-28T14:53:50.752Z,99850.50
2022-12-28T14:58:51.931Z,99835.56
2022-12-28T15:03:53.167Z,99830.59
2022-12-28T15:08:54.306Z,99820.13
2022-12-28T15:13:55.531Z,99815.50
2022-12-28T15:18:57.768Z,99799.25
2022-12-28T15:23:59.031Z,99795.78
2022-12-28T15:29:00.214Z,99786.25
2022-12-28T15:34:01.427Z,99781.81
2022-12-28T15:39:02.646Z,99782.41
2022-12-28T15:44:03.868Z,99781.63
2022-12-28T15:49:05.082Z,99778.72
2022-12-28T15:54:06.315Z,99763.97
2022-12-28T15:59:07.471Z,99762.69
2022-12-28T16:04:08.698Z,99749.00
2022-12-28T16:09:09.891Z,99740.66
2022-12-28T16:14:11.097Z,99730.38
2022-12-28T16:19:12.342Z,99715.66
2022-12-28T16:24:13.557Z,99708.75
2022-12-28T16:29:14.832Z,99697.19
2022-12-28T16:34:16.041Z,99688.25
2022-12-28T16:39:17.265Z,99660.22
2022-12-28T16:44:18.489Z,99659.94
2022-12-28T16:49:19.685Z,99656.81
2022-12-28T16:54:20.997Z,99658.06
2022-12-28T16:59:22.305Z,99657.78
2022-12-28T17:04:23.460Z,99640.03
2022-12-28T17:09:24.731Z,99636.94
2022-12-28T17:14:36.867Z,99625.94
2022-12-28T17:19:38.451Z,99620.31
2022-12-28T17:24:39.614Z,99618.81
2022-12-28T17:29:40.860Z,99611.88
2022-12-28T17:34:42.049Z,99605.47
2022-12-28T17:39:43.244Z,99608.88
2022-12-28T17:44:45.987Z,99606.66
2022-12-28T17:49:47.535Z,99598.72
2022-12-28T17:54:49.923Z,99597.06
2022-12-28T17:59:51.167Z,99591.16
2022-12-28T18:04:52.432Z,99588.59
2022-12-28T18:09:53.590Z,99582.38
2022-12-28T18:14:54.747Z,99584.03
2022-12-28T18:19:56.094Z,99586.75
2022-12-28T18:24:57.317Z,99584.13
2022-12-28T18:29:58.511Z,99569.97
2022-12-28T18:34:59.815Z,99551.00
2022-12-28T18:40:01.066Z,99543.44
2022-12-28T18:45:02.396Z,99529.88
2022-12-28T18:50:03.637Z,99523.59
2022-12-28T18:55:04.823Z,99514.19
2022-12-28T19:00:05.970Z,99508.94
2022-12-28T19:05:07.129Z,99503.16
2022-12-28T19:10:13.080Z,99503.72
2022-12-28T19:15:14.722Z,99501.41
2022-12-28T19:20:15.890Z,99491.69
2022-12-28T19:25:17.090Z,99471.88
2022-12-28T19:30:18.342Z,99469.25
2022-12-28T19:35:21.478Z,99471.06
2022-12-28T19:40:22.696Z,99472.63
2022-12-28T19:45:24.431Z,99468.97
2022-12-28T19:50:25.619Z,99468.69
2022-12-28T19:55:26.757Z,99458.50
2022-12-28T20:00:27.970Z,99463.44
2022-12-28T20:05:29.803Z,99456.06
2022-12-28T20:10:31.066Z,99455.50
2022-12-28T20:15:32.344Z,99444.25
2022-12-28T20:21:00.854Z,99428.25
2022-12-28T20:25:54.605Z,99427.50
2022-12-28T20:30:55.818Z,99427.19
2022-12-28T20:35:57.333Z,99423.22
2022-12-28T20:40:58.549Z,99420.00
2022-12-28T20:45:59.716Z,99419.13
2022-12-28T20:51:00.904Z,99417.47
2022-12-28T20:56:02.057Z,99411.94
2022-12-28T21:01:03.320Z,99408.03
2022-12-28T21:06:04.553Z,99399.88
2022-12-28T21:11:05.701Z,99395.59
2022-12-28T21:16:06.997Z,99392.38
2022-12-28T21:21:08.202Z,99387.03
2022-12-28T21:26:09.355Z,99378.59
2022-12-28T21:31:10.589Z,99380.53
2022-12-28T21:36:11.839Z,99372.25
2022-12-28T21:41:13.041Z,99370.28
2022-12-28T21:46:14.315Z,99367.72
2022-12-28T21:51:34.263Z,99372.38
2022-12-28T21:56:35.481Z,99358.97
2022-12-28T22:01:55.464Z,99345.59
2022-12-28T22:06:56.739Z,99345.47
2022-12-28T22:12:16.773Z,99340.69
2022-12-28T22:17:17.989Z,99337.78
2022-12-28T22:22:19.247Z,99331.66
2022-12-28T22:27:20.468Z,99318.72
2022-12-28T22:32:21.672Z,99317.94
2022-12-28T22:37:22.880Z,99323.16
2022-12-28T22:42:24.011Z,99310.69
2022-12-28T22:47:25.341Z,99307.91
2022-12-28T22:52:26.564Z,99308.22
2022-12-28T22:57:27.775Z,99306.34
2022-12-28T23:02:29.100Z,99312.34
2022-12-28T23:07:31.575Z,99302.69
2022-12-28T23:12:32.781Z,99307.59
2022-12-28T23:17:33.961Z,99296.81
2022-12-28T23:22:54.124Z,99302.84
2022-12-28T23:27:55.292Z,99295.44
2022-12-28T23:32:56.521Z,99297.94
2022-12-28T23:37:57.769Z,99303.34
2022-12-28T23:42:59.071Z,99279.63
2022-12-28T23:48:00.394Z,99272.41
2022-12-28T23:53:01.632Z,99251.81
2022-12-28T23:58:02.863Z,99259.06
